createdAt,value
2024-03-23T00:00:54.282Z,9.371
2024-03-23T00:01:54.286Z,9.371
2024-03-23T00:02:54.297Z,9.371
2024-03-23T00:03:54.301Z,9.371
2024-03-23T00:04:54.307Z,9.371
2024-03-23T00:05:54.308Z,9.336
2024-03-23T00:06:54.307Z,9.336
2024-03-23T00:07:54.322Z,9.336
2024-03-23T00:08:54.333Z,9.336
2024-03-23T00:09:54.341Z,9.336
2024-03-23T00:10:54.352Z,9.351
2024-03-23T00:11:54.362Z,9.351
2024-03-23T00:12:54.365Z,9.351
2024-03-23T00:13:54.376Z,9.351
2024-03-23T00:14:54.378Z,9.351
2024-03-23T00:15:54.382Z,9.301
2024-03-23T00:16:54.411Z,9.301
2024-03-23T00:17:54.404Z,9.274
2024-03-23T00:18:54.411Z,9.274
2024-03-23T00:19:54.431Z,9.245
2024-03-23T00:20:54.440Z,9.245
2024-03-23T00:21:54.469Z,9.245
2024-03-23T00:22:54.464Z,9.245
2024-03-23T00:23:54.475Z,9.245
2024-03-23T00:24:54.483Z,9.245
2024-03-23T00:25:54.492Z,9.221
2024-03-23T00:26:54.492Z,9.221
2024-03-23T00:27:54.502Z,9.221
2024-03-23T00:28:54.500Z,9.221
2024-03-23T00:29:54.504Z,9.221
2024-03-23T00:30:54.506Z,9.236
2024-03-23T00:31:54.514Z,9.236
2024-03-23T00:32:54.525Z,9.236
2024-03-23T00:33:54.537Z,9.236
2024-03-23T00:34:54.540Z,9.236
2024-03-23T00:35:54.558Z,9.236
2024-03-23T00:36:54.568Z,9.236
2024-03-23T00:37:54.570Z,9.236
2024-03-23T00:38:54.575Z,9.180
2024-03-23T00:39:54.617Z,9.236
2024-03-23T00:40:54.583Z,9.221
2024-03-23T00:41:55.341Z,9.165
2024-03-23T00:42:54.597Z,9.137
2024-03-23T00:43:54.611Z,9.137
2024-03-23T00:44:54.643Z,9.027
2024-03-23T00:45:54.640Z,9.027
2024-03-23T00:46:54.662Z,9.027
2024-03-23T00:47:54.661Z,9.027
2024-03-23T00:48:54.670Z,9.027
2024-03-23T00:49:54.677Z,9.092
2024-03-23T00:50:54.672Z,9.092
2024-03-23T00:51:54.681Z,9.092
2024-03-23T00:52:54.679Z,9.092
2024-03-23T00:53:54.703Z,9.092
2024-03-23T00:54:54.700Z,9.082
2024-03-23T00:55:54.716Z,9.082
2024-03-23T00:56:54.729Z,9.055
2024-03-23T00:57:54.740Z,9.082
2024-03-23T00:58:54.768Z,9.082
2024-03-23T00:59:54.754Z,9.029
2024-03-23T01:00:54.764Z,9.057
2024-03-23T01:01:54.775Z,9.029
2024-03-23T01:02:54.776Z,9.057
2024-03-23T01:03:54.780Z,9.057
2024-03-23T01:04:54.784Z,8.992
2024-03-23T01:05:54.799Z,8.964
2024-03-23T01:06:54.799Z,8.909
2024-03-23T01:07:54.840Z,8.909
2024-03-23T01:08:54.814Z,8.936
2024-03-23T01:09:54.841Z,8.894
2024-03-23T01:10:54.849Z,8.921
2024-03-23T01:11:54.850Z,8.921
2024-03-23T01:12:54.894Z,8.921
2024-03-23T01:13:54.894Z,8.921
2024-03-23T01:14:54.898Z,8.962
2024-03-23T01:15:54.900Z,8.962
2024-03-23T01:16:54.895Z,8.962
2024-03-23T01:17:54.894Z,8.962
2024-03-23T01:18:54.896Z,8.962
2024-03-23T01:19:54.919Z,8.936
2024-03-23T01:20:54.934Z,8.936
2024-03-23T01:21:54.972Z,8.936
2024-03-23T01:22:54.945Z,8.936
2024-03-23T01:23:54.954Z,8.936
2024-03-23T01:24:54.972Z,8.951
2024-03-23T01:25:54.984Z,8.951
2024-03-23T01:26:54.998Z,8.951
2024-03-23T01:27:54.997Z,8.951
2024-03-23T01:28:55.002Z,8.924
2024-03-23T01:29:55.008Z,8.936
2024-03-23T01:30:55.065Z,8.936
2024-03-23T01:31:55.014Z,8.909
2024-03-23T01:32:55.025Z,8.936
2024-03-23T01:33:55.045Z,8.936
2024-03-23T01:34:55.055Z,8.919
2024-03-23T01:35:55.079Z,8.919
2024-03-23T01:36:55.074Z,8.947
2024-03-23T01:37:55.090Z,8.919
2024-03-23T01:38:55.089Z,8.947
2024-03-23T01:39:55.115Z,8.921
2024-03-23T01:40:55.124Z,8.894
2024-03-23T01:41:55.106Z,8.838
2024-03-23T01:42:55.106Z,8.838
2024-03-23T01:43:55.117Z,8.838
2024-03-23T01:44:55.132Z,8.864
2024-03-23T01:45:55.138Z,8.864
2024-03-23T01:46:55.158Z,8.864
2024-03-23T01:47:55.163Z,8.864
2024-03-23T01:48:55.168Z,8.864
2024-03-23T01:49:55.195Z,8.864
2024-03-23T01:50:55.186Z,8.864
2024-03-23T01:51:55.205Z,8.864
2024-03-23T01:52:55.198Z,8.864
2024-03-23T01:53:55.210Z,8.864
2024-03-23T01:54:55.222Z,8.819
2024-03-23T01:55:55.222Z,8.819
2024-03-23T01:56:55.240Z,8.819
2024-03-23T01:57:55.246Z,8.819
2024-03-23T01:58:55.267Z,8.819
2024-03-23T01:59:55.289Z,8.838
2024-03-23T02:00:55.285Z,8.838
2024-03-23T02:01:55.297Z,8.838
2024-03-23T02:02:55.300Z,8.838
2024-03-23T02:03:55.315Z,8.838
2024-03-23T02:04:55.307Z,8.829
2024-03-23T02:05:55.319Z,8.829
2024-03-23T02:06:55.332Z,8.829
2024-03-23T02:07:55.331Z,8.829
2024-03-23T02:08:55.372Z,8.829
2024-03-23T02:09:55.379Z,8.838
2024-03-23T02:10:55.367Z,8.838
2024-03-23T02:11:55.377Z,8.838
2024-03-23T02:12:55.380Z,8.838
2024-03-23T02:13:55.396Z,8.811
2024-03-23T02:14:55.399Z,8.755
2024-03-23T02:15:55.413Z,8.755
2024-03-23T02:16:55.423Z,8.783
2024-03-23T02:17:55.432Z,8.755
2024-03-23T02:18:55.419Z,8.783
2024-03-23T02:19:55.436Z,8.745
2024-03-23T02:20:55.439Z,8.745
2024-03-23T02:21:55.474Z,8.745
2024-03-23T02:22:55.487Z,8.773
2024-03-23T02:23:55.474Z,8.745
2024-03-23T02:24:55.482Z,8.793
2024-03-23T02:25:55.488Z,8.793
2024-03-23T02:26:55.490Z,8.765
2024-03-23T02:27:55.499Z,8.793
2024-03-23T02:28:55.507Z,8.793
2024-03-23T02:29:55.503Z,8.783
2024-03-23T02:30:55.511Z,8.783
2024-03-23T02:31:55.540Z,8.811
2024-03-23T02:32:55.535Z,8.783
2024-03-23T02:33:55.543Z,8.783
2024-03-23T02:34:55.543Z,8.778
2024-03-23T02:35:55.557Z,8.778
2024-03-23T02:36:55.591Z,8.778
2024-03-23T02:37:55.574Z,8.778
2024-03-23T02:38:55.585Z,8.778
2024-03-23T02:39:55.582Z,8.733
2024-03-23T02:40:55.600Z,8.733
2024-03-23T02:41:55.597Z,8.705
2024-03-23T02:42:55.599Z,8.733
2024-03-23T02:43:55.605Z,8.733
2024-03-23T02:44:55.620Z,8.703
2024-03-23T02:45:55.649Z,8.703
2024-03-23T02:46:55.671Z,8.703
2024-03-23T02:47:55.670Z,8.703
2024-03-23T02:48:55.666Z,8.703
2024-03-23T02:49:55.678Z,8.698
2024-03-23T02:50:55.701Z,8.670
2024-03-23T02:51:55.685Z,8.698
2024-03-23T02:52:55.691Z,8.698
2024-03-23T02:53:55.705Z,8.698
2024-03-23T02:54:55.696Z,8.668
2024-03-23T02:55:55.712Z,8.668
2024-03-23T02:56:55.738Z,8.668
2024-03-23T02:57:55.737Z,8.612
2024-03-23T02:58:55.766Z,8.668
2024-03-23T02:59:55.766Z,8.668
2024-03-23T03:00:55.770Z,8.668
2024-03-23T03:01:55.777Z,8.668
2024-03-23T03:02:55.796Z,8.668
2024-03-23T03:03:55.794Z,8.640
2024-03-23T03:04:55.811Z,8.668
2024-03-23T03:05:55.800Z,8.668
2024-03-23T03:06:55.797Z,8.640
2024-03-23T03:07:55.804Z,8.612
2024-03-23T03:08:55.830Z,8.585
2024-03-23T03:09:55.840Z,8.612
2024-03-23T03:10:55.858Z,8.617
2024-03-23T03:11:55.866Z,8.617
2024-03-23T03:12:55.861Z,8.617
2024-03-23T03:13:55.876Z,8.617
2024-03-23T03:14:55.886Z,8.617
2024-03-23T03:15:55.877Z,8.592
2024-03-23T03:16:55.878Z,8.592
2024-03-23T03:17:55.887Z,8.592
2024-03-23T03:18:55.900Z,8.592
2024-03-23T03:19:55.919Z,8.592
2024-03-23T03:20:55.919Z,8.562
2024-03-23T03:21:55.936Z,8.562
2024-03-23T03:22:55.994Z,8.562
2024-03-23T03:23:55.953Z,8.562
2024-03-23T03:24:55.980Z,8.562
2024-03-23T03:25:55.974Z,8.587
2024-03-23T03:26:55.980Z,8.587
2024-03-23T03:27:55.996Z,8.587
2024-03-23T03:28:56.036Z,8.587
2024-03-23T03:29:56.024Z,8.587
2024-03-23T03:30:56.004Z,8.517
2024-03-23T03:31:56.026Z,8.517
2024-03-23T03:32:56.063Z,8.517
2024-03-23T03:33:56.063Z,8.489
2024-03-23T03:34:56.049Z,8.489
2024-03-23T03:35:56.081Z,8.454
2024-03-23T03:36:56.092Z,8.454
2024-03-23T03:37:56.076Z,8.454
2024-03-23T03:38:56.092Z,8.454
2024-03-23T03:39:56.092Z,8.454
2024-03-23T03:40:56.096Z,8.454
2024-03-23T03:41:56.118Z,8.399
2024-03-23T03:42:56.864Z,8.399
2024-03-23T03:43:56.120Z,8.370
2024-03-23T03:44:56.124Z,8.399
2024-03-23T03:45:56.138Z,8.369
2024-03-23T03:46:56.274Z,8.369
2024-03-23T03:47:56.157Z,8.341
2024-03-23T03:48:56.164Z,8.369
2024-03-23T03:49:56.174Z,8.341
2024-03-23T03:50:56.179Z,8.403
2024-03-23T03:51:56.194Z,8.403
2024-03-23T03:52:56.201Z,8.376
2024-03-23T03:53:56.215Z,8.403
2024-03-23T03:54:56.212Z,8.376
2024-03-23T03:55:56.231Z,8.341
2024-03-23T03:56:56.236Z,8.369
2024-03-23T03:57:56.241Z,8.369
2024-03-23T03:58:56.257Z,8.369
2024-03-23T03:59:56.262Z,8.369
2024-03-23T04:00:56.307Z,8.369
2024-03-23T04:01:56.278Z,8.369
2024-03-23T04:02:56.280Z,8.369
2024-03-23T04:03:56.291Z,8.369
2024-03-23T04:04:56.306Z,8.369
2024-03-23T04:05:56.312Z,8.373
2024-03-23T04:06:56.318Z,8.373
2024-03-23T04:07:56.316Z,8.373
2024-03-23T04:08:56.332Z,8.373
2024-03-23T04:09:56.349Z,8.373
2024-03-23T04:10:56.343Z,8.369
2024-03-23T04:11:56.367Z,8.369
2024-03-23T04:12:56.368Z,8.369
2024-03-23T04:13:56.385Z,8.369
2024-03-23T04:14:56.402Z,8.369
2024-03-23T04:15:56.396Z,8.309
2024-03-23T04:16:56.404Z,8.309
2024-03-23T04:17:56.400Z,8.309
2024-03-23T04:18:56.413Z,8.309
2024-03-23T04:19:56.429Z,8.309
2024-03-23T04:20:56.459Z,8.268
2024-03-23T04:21:56.441Z,8.268
2024-03-23T04:22:56.444Z,8.268
2024-03-23T04:23:56.480Z,8.268
2024-03-23T04:24:56.466Z,8.268
2024-03-23T04:25:56.472Z,8.309
2024-03-23T04:26:56.479Z,8.309
2024-03-23T04:27:56.487Z,8.309
2024-03-23T04:28:56.499Z,8.309
2024-03-23T04:29:56.500Z,8.309
2024-03-23T04:30:56.501Z,8.268
2024-03-23T04:31:56.501Z,8.268
2024-03-23T04:32:56.518Z,8.268
2024-03-23T04:33:56.529Z,8.268
2024-03-23T04:34:56.542Z,8.268
2024-03-23T04:35:56.557Z,8.258
2024-03-23T04:36:56.569Z,8.258
2024-03-23T04:37:56.584Z,8.230
2024-03-23T04:38:56.591Z,8.175
2024-03-23T04:39:56.592Z,8.175
2024-03-23T04:40:56.603Z,8.140
2024-03-23T04:41:56.609Z,8.140
2024-03-23T04:42:56.615Z,8.140
2024-03-23T04:43:56.617Z,8.140
2024-03-23T04:44:56.620Z,8.140
2024-03-23T04:45:56.639Z,8.125
2024-03-23T04:46:56.642Z,8.125
2024-03-23T04:47:56.668Z,8.125
2024-03-23T04:48:56.679Z,8.125
2024-03-23T04:49:56.680Z,8.125
2024-03-23T04:50:56.683Z,8.125
2024-03-23T04:51:56.698Z,8.125
2024-03-23T04:52:56.699Z,8.125
2024-03-23T04:53:56.710Z,8.181
2024-03-23T04:54:56.717Z,8.181
2024-03-23T04:55:56.728Z,8.244
2024-03-23T04:56:56.733Z,8.216
2024-03-23T04:57:56.734Z,8.244
2024-03-23T04:58:56.735Z,8.216
2024-03-23T04:59:56.749Z,8.216
2024-03-23T05:00:56.760Z,8.191
2024-03-23T05:01:56.776Z,8.135
2024-03-23T05:02:56.786Z,8.135
2024-03-23T05:03:56.780Z,8.135
2024-03-23T05:04:56.802Z,8.135
2024-03-23T05:05:56.812Z,8.115
2024-03-23T05:06:56.824Z,8.115
2024-03-23T05:07:56.816Z,8.115
2024-03-23T05:08:56.815Z,8.115
2024-03-23T05:09:56.831Z,8.115
2024-03-23T05:10:56.865Z,8.170
2024-03-23T05:11:56.854Z,8.170
2024-03-23T05:12:56.870Z,8.170
2024-03-23T05:13:56.875Z,8.170
2024-03-23T05:14:56.891Z,8.170
2024-03-23T05:15:56.913Z,8.140
2024-03-23T05:16:56.903Z,8.140
2024-03-23T05:17:56.910Z,8.140
2024-03-23T05:18:56.914Z,8.140
2024-03-23T05:19:59.652Z,8.140
2024-03-23T05:20:56.936Z,8.075
2024-03-23T05:21:56.929Z,8.075
2024-03-23T05:22:56.942Z,8.075
2024-03-23T05:23:56.966Z,8.075
2024-03-23T05:24:56.985Z,8.075
2024-03-23T05:25:56.975Z,8.080
2024-03-23T05:26:56.988Z,8.080
2024-03-23T05:27:56.998Z,8.080
2024-03-23T05:28:57.018Z,8.052
2024-03-23T05:29:57.061Z,8.052
2024-03-23T05:30:57.042Z,8.127
2024-03-23T05:31:57.053Z,8.072
2024-03-23T05:32:57.058Z,8.072
2024-03-23T05:33:57.058Z,8.072
2024-03-23T05:34:57.061Z,8.072
2024-03-23T05:35:57.056Z,8.037
2024-03-23T05:36:57.065Z,8.037
2024-03-23T05:37:57.087Z,8.037
2024-03-23T05:38:57.113Z,8.037
2024-03-23T05:39:57.110Z,8.037
2024-03-23T05:40:57.129Z,8.037
2024-03-23T05:41:57.140Z,8.065
2024-03-23T05:42:57.196Z,8.065
2024-03-23T05:43:57.164Z,8.037
2024-03-23T05:44:57.151Z,8.037
2024-03-23T05:45:57.159Z,8.021
2024-03-23T05:46:57.165Z,8.021
2024-03-23T05:47:57.165Z,8.077
2024-03-23T05:48:57.172Z,8.077
2024-03-23T05:49:57.187Z,8.021
2024-03-23T05:50:57.202Z,8.002
2024-03-23T05:51:57.213Z,8.002
2024-03-23T05:52:57.252Z,8.002
2024-03-23T05:53:57.236Z,8.002
2024-03-23T05:54:57.246Z,8.002
2024-03-23T05:55:57.257Z,8.091
2024-03-23T05:56:57.271Z,8.091
2024-03-23T05:57:57.282Z,8.119
2024-03-23T05:58:57.282Z,8.119
2024-03-23T05:59:57.284Z,8.091
2024-03-23T06:00:57.279Z,8.076
2024-03-23T06:01:57.290Z,8.076
2024-03-23T06:02:57.287Z,8.076
2024-03-23T06:03:57.304Z,8.076
2024-03-23T06:04:57.324Z,8.076
2024-03-23T06:05:57.325Z,8.017
2024-03-23T06:06:57.359Z,8.017
2024-03-23T06:08:00.417Z,8.017
2024-03-23T06:08:57.364Z,8.017
2024-03-23T06:09:57.367Z,8.044
2024-03-23T06:10:57.396Z,8.085
2024-03-23T06:11:57.406Z,8.085
2024-03-23T06:12:57.399Z,8.056
2024-03-23T06:13:57.404Z,8.056
2024-03-23T06:14:57.407Z,8.056
2024-03-23T06:15:57.408Z,8.099
2024-03-23T06:16:57.424Z,8.099
2024-03-23T06:17:57.463Z,8.072
2024-03-23T06:18:57.457Z,8.099
2024-03-23T06:19:57.461Z,8.099
2024-03-23T06:20:57.491Z,8.079
2024-03-23T06:21:57.482Z,8.052
2024-03-23T06:22:57.489Z,8.079
2024-03-23T06:23:57.500Z,8.052
2024-03-23T06:24:57.527Z,7.996
2024-03-23T06:25:57.548Z,8.031
2024-03-23T06:26:57.529Z,8.031
2024-03-23T06:27:57.534Z,8.031
2024-03-23T06:28:57.549Z,8.059
2024-03-23T06:29:57.538Z,7.954
2024-03-23T06:30:57.554Z,8.059
2024-03-23T06:31:57.566Z,8.031
2024-03-23T06:32:57.605Z,8.031
2024-03-23T06:33:57.601Z,8.031
2024-03-23T06:34:57.618Z,7.911
2024-03-23T06:35:57.607Z,7.911
2024-03-23T06:36:57.613Z,7.911
2024-03-23T06:37:57.624Z,7.856
2024-03-23T06:38:57.629Z,7.856
2024-03-23T06:39:57.669Z,7.856
2024-03-23T06:40:57.646Z,7.772
2024-03-23T06:41:57.640Z,7.689
2024-03-23T06:42:57.657Z,7.689
2024-03-23T06:43:57.666Z,7.689
2024-03-23T06:44:57.682Z,7.579
2024-03-23T06:45:57.686Z,7.524
2024-03-23T06:46:57.727Z,7.524
2024-03-23T06:47:57.730Z,7.524
2024-03-23T06:48:57.739Z,7.551
2024-03-23T06:49:57.739Z,7.621
2024-03-23T06:50:57.757Z,7.538
2024-03-23T06:51:57.749Z,7.538
2024-03-23T06:52:57.751Z,7.538
2024-03-23T06:53:57.788Z,7.538
2024-03-23T06:54:57.762Z,7.513
2024-03-23T06:55:57.768Z,7.513
2024-03-23T06:56:57.781Z,7.513
2024-03-23T06:57:57.811Z,7.513
2024-03-23T06:58:57.805Z,7.513
2024-03-23T06:59:57.818Z,7.503
2024-03-23T07:00:57.828Z,7.503
2024-03-23T07:01:57.840Z,7.503
2024-03-23T07:02:57.878Z,7.503
2024-03-23T07:03:57.864Z,7.503
2024-03-23T07:04:57.874Z,7.538
2024-03-23T07:05:57.885Z,7.538
2024-03-23T07:06:57.884Z,7.538
2024-03-23T07:07:57.908Z,7.538
2024-03-23T07:08:57.889Z,7.454
2024-03-23T07:09:57.899Z,7.470
2024-03-23T07:10:57.914Z,7.470
2024-03-23T07:11:57.921Z,7.470
2024-03-23T07:12:57.932Z,7.470
2024-03-23T07:13:57.949Z,7.470
2024-03-23T07:14:57.962Z,7.505
2024-03-23T07:15:57.970Z,7.505
2024-03-23T07:16:57.987Z,7.505
2024-03-23T07:17:57.983Z,7.505
2024-03-23T07:18:57.982Z,7.505
2024-03-23T07:19:57.987Z,7.569
2024-03-23T07:20:57.999Z,7.569
2024-03-23T07:21:58.014Z,7.569
2024-03-23T07:22:58.000Z,7.653
2024-03-23T07:23:58.015Z,7.653
2024-03-23T07:24:58.023Z,7.648
2024-03-23T07:25:58.039Z,7.648
2024-03-23T07:26:58.039Z,7.648
2024-03-23T07:27:59.838Z,7.648
2024-03-23T07:28:58.051Z,7.648
2024-03-23T07:29:58.066Z,7.668
2024-03-23T07:30:58.086Z,7.668
2024-03-23T07:31:58.075Z,7.668
2024-03-23T07:32:58.082Z,7.668
2024-03-23T07:33:58.070Z,7.668
2024-03-23T07:34:58.087Z,7.726
2024-03-23T07:35:58.119Z,7.726
2024-03-23T07:36:58.112Z,7.781
2024-03-23T07:37:58.111Z,7.781
2024-03-23T07:39:03.750Z,7.781
2024-03-23T07:39:58.143Z,7.836
2024-03-23T07:40:58.144Z,7.809
2024-03-23T07:41:58.135Z,7.836
2024-03-23T07:42:58.137Z,7.836
2024-03-23T07:43:58.147Z,7.836
2024-03-23T07:44:58.178Z,7.796
2024-03-23T07:45:58.159Z,7.713
2024-03-23T07:46:58.171Z,7.713
2024-03-23T07:47:58.175Z,7.713
2024-03-23T07:48:58.200Z,7.796
2024-03-23T07:49:58.202Z,7.753
2024-03-23T07:50:58.206Z,7.781
2024-03-23T07:51:58.202Z,7.781
2024-03-23T07:52:58.217Z,7.869
2024-03-23T07:53:58.223Z,7.869
2024-03-23T07:54:58.222Z,7.869
2024-03-23T07:55:58.223Z,7.869
2024-03-23T07:56:58.229Z,7.869
2024-03-23T07:57:58.245Z,7.924
2024-03-23T07:58:58.271Z,7.924
2024-03-23T07:59:58.255Z,7.924
2024-03-23T08:00:58.259Z,7.924
2024-03-23T08:01:59.948Z,7.924
2024-03-23T08:02:58.286Z,7.929
2024-03-23T08:03:58.305Z,7.929
2024-03-23T08:04:58.295Z,7.929
2024-03-23T08:05:58.299Z,7.984
2024-03-23T08:06:58.342Z,8.012
2024-03-23T08:07:58.302Z,8.012
2024-03-23T08:08:58.308Z,8.012
2024-03-23T08:09:58.319Z,8.012
2024-03-23T08:10:58.332Z,8.012
2024-03-23T08:11:58.343Z,8.012
2024-03-23T08:12:58.384Z,7.982
2024-03-23T08:13:58.360Z,7.982
2024-03-23T08:14:58.375Z,7.982
2024-03-23T08:15:58.379Z,7.982
2024-03-23T08:16:58.394Z,7.982
2024-03-23T08:17:58.409Z,7.922
2024-03-23T08:18:58.389Z,7.922
2024-03-23T08:19:58.400Z,7.922
2024-03-23T08:20:58.421Z,7.922
2024-03-23T08:21:58.417Z,7.922
2024-03-23T08:22:58.429Z,7.907
2024-03-23T08:23:58.437Z,7.907
2024-03-23T08:24:58.473Z,7.907
2024-03-23T08:25:58.461Z,7.907
2024-03-23T08:26:58.520Z,7.907
2024-03-23T08:27:58.483Z,7.882
2024-03-23T08:28:58.482Z,7.882
2024-03-23T08:29:58.487Z,7.882
2024-03-23T08:30:58.491Z,7.882
2024-03-23T08:31:58.512Z,7.882
2024-03-23T08:32:58.505Z,7.882
2024-03-23T08:33:58.511Z,7.882
2024-03-23T08:34:58.522Z,7.938
2024-03-23T08:35:58.527Z,7.882
2024-03-23T08:36:58.533Z,7.882
2024-03-23T08:37:58.540Z,7.847
2024-03-23T08:38:58.546Z,7.903
2024-03-23T08:39:58.555Z,7.931
2024-03-23T08:40:58.572Z,7.931
2024-03-23T08:41:58.564Z,7.931
2024-03-23T08:42:58.571Z,7.931
2024-03-23T08:43:58.570Z,7.931
2024-03-23T08:44:58.593Z,7.931
2024-03-23T08:45:58.619Z,7.931
2024-03-23T08:46:58.611Z,7.931
2024-03-23T08:47:58.621Z,7.941
2024-03-23T08:48:58.637Z,7.941
2024-03-23T08:49:58.636Z,7.941
2024-03-23T08:50:58.639Z,7.941
2024-03-23T08:51:58.638Z,7.941
2024-03-23T08:52:58.647Z,7.976
2024-03-23T08:53:58.660Z,7.976
2024-03-23T08:54:58.678Z,7.976
2024-03-23T08:55:58.672Z,7.976
2024-03-23T08:56:58.690Z,7.976
2024-03-23T08:57:58.695Z,7.956
2024-03-23T08:58:58.704Z,7.956
2024-03-23T08:59:58.725Z,7.956
2024-03-23T09:00:58.723Z,7.956
2024-03-23T09:01:58.728Z,7.956
2024-03-23T09:02:58.736Z,7.913
2024-03-23T09:03:58.743Z,7.913
2024-03-23T09:04:58.748Z,7.886
2024-03-23T09:05:58.756Z,7.913
2024-03-23T09:06:58.765Z,7.969
2024-03-23T09:07:58.771Z,7.869
2024-03-23T09:08:58.774Z,7.869
2024-03-23T09:09:58.784Z,7.924
2024-03-23T09:10:58.796Z,7.869
2024-03-23T09:11:58.813Z,7.869
2024-03-23T09:12:58.815Z,7.893
2024-03-23T09:13:58.827Z,7.778
2024-03-23T09:14:58.826Z,7.751
2024-03-23T09:15:58.852Z,7.751
2024-03-23T09:16:58.843Z,7.751
2024-03-23T09:17:58.860Z,7.751
2024-03-23T09:18:58.848Z,7.790
2024-03-23T09:19:58.856Z,7.790
2024-03-23T09:20:58.869Z,7.790
2024-03-23T09:21:58.887Z,7.790
2024-03-23T09:22:58.900Z,7.790
2024-03-23T09:23:58.906Z,7.821
2024-03-23T09:24:58.910Z,7.821
2024-03-23T09:25:58.916Z,7.821
2024-03-23T09:26:58.930Z,7.821
2024-03-23T09:27:58.933Z,7.821
2024-03-23T09:28:58.936Z,7.831
2024-03-23T09:29:58.952Z,7.831
2024-03-23T09:30:58.953Z,7.831
2024-03-23T09:31:58.966Z,7.831
2024-03-23T09:32:58.975Z,7.831
2024-03-23T09:33:58.968Z,7.790
2024-03-23T09:34:58.979Z,7.790
2024-03-23T09:35:58.992Z,7.790
2024-03-23T09:36:59.035Z,7.790
2024-03-23T09:37:59.013Z,7.790
2024-03-23T09:38:59.024Z,7.831
2024-03-23T09:39:59.046Z,7.831
2024-03-23T09:40:59.048Z,7.831
2024-03-23T09:41:59.052Z,7.803
2024-03-23T09:42:59.063Z,7.831
2024-03-23T09:43:59.058Z,7.698
2024-03-23T09:44:59.062Z,7.808
2024-03-23T09:45:59.089Z,7.835
2024-03-23T09:46:59.091Z,7.835
2024-03-23T09:47:59.096Z,7.835
2024-03-23T09:48:59.112Z,7.835
2024-03-23T09:49:59.122Z,7.780
2024-03-23T09:50:59.125Z,7.780
2024-03-23T09:51:59.132Z,7.780
2024-03-23T09:52:59.144Z,7.780
2024-03-23T09:53:59.145Z,7.780
2024-03-23T09:54:59.148Z,7.726
2024-03-23T09:55:59.152Z,7.726
2024-03-23T09:56:59.158Z,7.726
2024-03-23T09:57:59.156Z,7.726
2024-03-23T09:58:59.177Z,7.726
2024-03-23T09:59:59.203Z,7.761
2024-03-23T10:00:59.218Z,7.761
2024-03-23T10:01:59.223Z,7.761
2024-03-23T10:02:59.230Z,7.761
2024-03-23T10:03:59.237Z,7.761
2024-03-23T10:04:59.260Z,7.766
2024-03-23T10:05:59.261Z,7.793
2024-03-23T10:06:59.265Z,7.793
2024-03-23T10:07:59.271Z,7.793
2024-03-23T10:08:59.273Z,7.849
2024-03-23T10:09:59.285Z,7.824
2024-03-23T10:10:59.288Z,7.824
2024-03-23T10:11:59.309Z,7.824
2024-03-23T10:12:59.326Z,7.824
2024-03-23T10:14:00.717Z,7.824
2024-03-23T10:14:59.366Z,7.829
2024-03-23T10:15:59.369Z,7.829
2024-03-23T10:16:59.364Z,7.829
2024-03-23T10:17:59.381Z,7.829
2024-03-23T10:18:59.381Z,7.829
2024-03-23T10:19:59.375Z,7.829
2024-03-23T10:20:59.379Z,7.829
2024-03-23T10:21:59.391Z,7.829
2024-03-23T10:22:59.405Z,7.829
2024-03-23T10:23:59.411Z,7.801
2024-03-23T10:24:59.425Z,7.859
2024-03-23T10:25:59.440Z,7.859
2024-03-23T10:26:59.449Z,7.754
2024-03-23T10:27:59.464Z,7.671
2024-03-23T10:28:59.462Z,7.671
2024-03-23T10:29:59.459Z,7.671
2024-03-23T10:30:59.471Z,7.671
2024-03-23T10:31:59.470Z,7.575
2024-03-23T10:32:59.506Z,7.575
2024-03-23T10:33:59.496Z,7.575
2024-03-23T10:34:59.506Z,7.575
2024-03-23T10:35:59.525Z,7.575
2024-03-23T10:36:59.530Z,7.606
2024-03-23T10:37:59.537Z,7.606
2024-03-23T10:38:59.548Z,7.606
2024-03-23T10:39:59.552Z,7.606
2024-03-23T10:40:59.557Z,7.606
2024-03-23T10:41:59.585Z,7.596
2024-03-23T10:42:59.572Z,7.596
2024-03-23T10:43:59.575Z,7.596
2024-03-23T10:44:59.599Z,7.596
2024-03-23T10:45:59.612Z,7.596
2024-03-23T10:46:59.632Z,7.681
2024-03-23T10:47:59.631Z,7.681
2024-03-23T10:48:59.634Z,7.681
2024-03-23T10:49:59.653Z,7.681
2024-03-23T10:50:59.650Z,7.681
2024-03-23T10:51:59.660Z,7.700
2024-03-23T10:52:59.657Z,7.700
2024-03-23T10:53:59.662Z,7.700
2024-03-23T10:54:59.675Z,7.700
2024-03-23T10:55:59.720Z,7.700
2024-03-23T10:56:59.693Z,7.745
2024-03-23T10:57:59.706Z,7.745
2024-03-23T10:58:59.717Z,7.745
2024-03-23T10:59:59.721Z,7.745
2024-03-23T11:00:59.756Z,7.745
2024-03-23T11:01:59.733Z,7.745
2024-03-23T11:02:59.737Z,7.745
2024-03-23T11:03:59.739Z,7.718
2024-03-23T11:04:59.762Z,7.718
2024-03-23T11:05:59.758Z,7.718
2024-03-23T11:06:59.771Z,7.718
2024-03-23T11:07:59.784Z,7.793
2024-03-23T11:08:59.797Z,7.821
2024-03-23T11:09:59.806Z,7.821
2024-03-23T11:10:59.808Z,7.821
2024-03-23T11:11:59.812Z,7.821
2024-03-23T11:12:59.823Z,7.776
2024-03-23T11:13:59.826Z,7.776
2024-03-23T11:14:59.846Z,7.748
2024-03-23T11:15:59.824Z,7.748
2024-03-23T11:16:59.833Z,7.776
2024-03-23T11:17:59.836Z,7.761
2024-03-23T11:18:59.852Z,7.761
2024-03-23T11:19:59.893Z,7.761
2024-03-23T11:20:59.876Z,7.761
2024-03-23T11:21:59.888Z,7.761
2024-03-23T11:22:59.897Z,7.796
2024-03-23T11:23:59.918Z,7.796
2024-03-23T11:24:59.914Z,7.796
2024-03-23T11:25:59.916Z,7.796
2024-03-23T11:26:59.917Z,7.796
2024-03-23T11:27:59.925Z,7.801
2024-03-23T11:28:59.938Z,7.801
2024-03-23T11:29:59.944Z,7.829
2024-03-23T11:30:59.986Z,7.829
2024-03-23T11:31:59.963Z,7.884
2024-03-23T11:32:59.971Z,7.974
2024-03-23T11:33:59.979Z,7.974
2024-03-23T11:35:00.013Z,7.946
2024-03-23T11:35:59.997Z,7.974
2024-03-23T11:37:00.010Z,7.946
2024-03-23T11:38:00.025Z,7.981
2024-03-23T11:39:00.019Z,8.037
2024-03-23T11:40:00.046Z,8.064
2024-03-23T11:41:00.030Z,8.037
2024-03-23T11:42:00.042Z,8.037
2024-03-23T11:43:00.059Z,8.101
2024-03-23T11:44:00.053Z,8.101
2024-03-23T11:45:00.051Z,8.130
2024-03-23T11:46:00.059Z,8.101
2024-03-23T11:47:00.078Z,8.101
2024-03-23T11:48:00.098Z,8.169
2024-03-23T11:49:00.096Z,8.142
2024-03-23T11:50:00.181Z,8.225
2024-03-23T11:51:00.106Z,8.225
2024-03-23T11:52:00.125Z,8.225
2024-03-23T11:53:00.151Z,8.200
2024-03-23T11:54:00.150Z,8.200
2024-03-23T11:55:00.178Z,8.200
2024-03-23T11:56:00.150Z,8.200
2024-03-23T11:57:00.192Z,8.200
2024-03-23T11:58:00.163Z,8.215
2024-03-23T11:59:00.192Z,8.215
2024-03-23T12:00:00.227Z,8.215
2024-03-23T12:01:00.205Z,8.215
2024-03-23T12:02:00.195Z,8.215
2024-03-23T12:03:00.207Z,8.250
2024-03-23T12:04:00.207Z,8.334
2024-03-23T12:05:00.255Z,8.334
2024-03-23T12:06:00.241Z,8.334
2024-03-23T12:07:00.216Z,8.334
2024-03-23T12:08:00.229Z,8.390
2024-03-23T12:09:00.252Z,8.418
2024-03-23T12:10:00.315Z,8.418
2024-03-23T12:11:00.269Z,8.390
2024-03-23T12:12:00.280Z,8.418
2024-03-23T12:13:00.268Z,8.421
2024-03-23T12:14:00.276Z,8.448
2024-03-23T12:15:00.292Z,8.448
2024-03-23T12:16:00.287Z,8.421
2024-03-23T12:17:00.295Z,8.421
2024-03-23T12:18:00.300Z,8.563
2024-03-23T12:19:00.301Z,8.563
2024-03-23T12:20:00.366Z,8.536
2024-03-23T12:21:00.320Z,8.536
2024-03-23T12:22:00.364Z,8.536
2024-03-23T12:23:00.337Z,8.515
2024-03-23T12:24:00.351Z,8.515
2024-03-23T12:25:00.443Z,8.515
2024-03-23T12:26:00.398Z,8.599
2024-03-23T12:27:00.382Z,8.599
2024-03-23T12:28:00.376Z,8.639
2024-03-23T12:29:00.394Z,8.639
2024-03-23T12:30:00.393Z,8.639
2024-03-23T12:31:00.393Z,8.666
2024-03-23T12:32:01.604Z,8.639
2024-03-23T12:33:00.415Z,8.669
2024-03-23T12:34:00.455Z,8.669
2024-03-23T12:35:00.425Z,8.697
2024-03-23T12:36:00.432Z,8.752
2024-03-23T12:37:00.446Z,8.752
2024-03-23T12:38:00.449Z,8.752
2024-03-23T12:39:00.470Z,8.752
2024-03-23T12:40:00.474Z,8.752
2024-03-23T12:41:00.478Z,8.752
2024-03-23T12:42:00.483Z,8.752
2024-03-23T12:43:00.485Z,8.767
2024-03-23T12:44:00.494Z,8.767
2024-03-23T12:45:00.547Z,8.767
2024-03-23T12:46:00.593Z,8.652
2024-03-23T12:47:00.517Z,8.624
2024-03-23T12:48:00.553Z,8.624
2024-03-23T12:49:00.537Z,8.624
2024-03-23T12:50:00.545Z,8.652
2024-03-23T12:51:00.575Z,8.677
2024-03-23T12:52:00.566Z,8.677
2024-03-23T12:53:00.599Z,8.677